Terminal Aerodrome Forecast
Issued by NWS Amarillo, TX

Home | Current Version | Previous Version | Text Only | Print | Product List | Glossary On
Versions: 1 2 3 4 5 6 7 8 9 10 11 12 13 14 15 16 17 18 19 20 21 22 23
000
FTUS44 KAMA 010500
TAFAMA
TAF
KAMA 010520Z 0106/0206 20006KT P6SM OVC015
     FM010800 33010KT 2SM BR OVC008
     FM011200 36016KT P6SM BKN018
     FM011500 35020G30KT P6SM BKN025
     FM020100 02010KT P6SM SCT050=

USA.gov is the U.S. government's official web portal to all federal, state and local government web resources and services.